sensor_id;sensor_type;location;lat;lon;timestamp;P1;durP1;ratioP1;P2;durP2;ratioP2
20298;SDS011;10308;42.688;23.256;2023-10-08T00:02:22;5.72;;;4.30;;
20298;SDS011;10308;42.688;23.256;2023-10-08T00:04:51;4.72;;;3.63;;
20298;SDS011;10308;42.688;23.256;2023-10-08T00:07:20;6.70;;;4.07;;
20298;SDS011;10308;42.688;23.256;2023-10-08T00:09:51;4.75;;;4.20;;
20298;SDS011;10308;42.688;23.256;2023-10-08T00:12:18;5.57;;;4.30;;
20298;SDS011;10308;42.688;23.256;2023-10-08T00:14:45;5.72;;;4.60;;
20298;SDS011;10308;42.688;23.256;2023-10-08T00:17:15;6.13;;;4.07;;
20298;SDS011;10308;42.688;23.256;2023-10-08T00:19:42;4.32;;;3.42;;
20298;SDS011;10308;42.688;23.256;2023-10-08T00:22:09;5.20;;;3.60;;
20298;SDS011;10308;42.688;23.256;2023-10-08T00:24:38;5.35;;;3.95;;
20298;SDS011;10308;42.688;23.256;2023-10-08T00:27:08;5.28;;;3.72;;
20298;SDS011;10308;42.688;23.256;2023-10-08T00:29:40;4.70;;;3.63;;
20298;SDS011;10308;42.688;23.256;2023-10-08T00:32:08;4.28;;;3.78;;
20298;SDS011;10308;42.688;23.256;2023-10-08T00:34:39;5.38;;;3.80;;
20298;SDS011;10308;42.688;23.256;2023-10-08T00:37:08;5.43;;;3.92;;
20298;SDS011;10308;42.688;23.256;2023-10-08T00:39:36;5.45;;;3.90;;
20298;SDS011;10308;42.688;23.256;2023-10-08T00:42:05;6.72;;;3.75;;
20298;SDS011;10308;42.688;23.256;2023-10-08T00:44:34;6.90;;;3.75;;
20298;SDS011;10308;42.688;23.256;2023-10-08T00:47:06;5.80;;;3.40;;
20298;SDS011;10308;42.688;23.256;2023-10-08T00:49:36;5.22;;;4.20;;
20298;SDS011;10308;42.688;23.256;2023-10-08T00:52:19;5.28;;;3.60;;
20298;SDS011;10308;42.688;23.256;2023-10-08T00:54:55;4.78;;;3.83;;
20298;SDS011;10308;42.688;23.256;2023-10-08T00:57:38;4.45;;;3.45;;
20298;SDS011;10308;42.688;23.256;2023-10-08T01:00:10;3.97;;;3.15;;
20298;SDS011;10308;42.688;23.256;2023-10-08T01:02:48;5.78;;;4.15;;
20298;SDS011;10308;42.688;23.256;2023-10-08T01:05:25;4.95;;;4.28;;
20298;SDS011;10308;42.688;23.256;2023-10-08T01:08:07;5.30;;;4.20;;
20298;SDS011;10308;42.688;23.256;2023-10-08T01:10:37;5.53;;;4.03;;
20298;SDS011;10308;42.688;23.256;2023-10-08T01:13:05;5.28;;;4.55;;
20298;SDS011;10308;42.688;23.256;2023-10-08T01:15:40;5.13;;;4.18;;
20298;SDS011;10308;42.688;23.256;2023-10-08T01:18:10;5.00;;;4.50;;
20298;SDS011;10308;42.688;23.256;2023-10-08T01:20:44;5.30;;;4.70;;
20298;SDS011;10308;42.688;23.256;2023-10-08T01:23:19;5.88;;;5.25;;
20298;SDS011;10308;42.688;23.256;2023-10-08T01:25:47;7.18;;;5.53;;
20298;SDS011;10308;42.688;23.256;2023-10-08T01:28:17;7.22;;;5.72;;
20298;SDS011;10308;42.688;23.256;2023-10-08T01:30:51;5.97;;;5.43;;
20298;SDS011;10308;42.688;23.256;2023-10-08T01:33:21;6.13;;;5.40;;
20298;SDS011;10308;42.688;23.256;2023-10-08T01:35:49;7.43;;;5.25;;
20298;SDS011;10308;42.688;23.256;2023-10-08T01:38:16;5.97;;;5.38;;
20298;SDS011;10308;42.688;23.256;2023-10-08T01:40:51;6.35;;;5.53;;
20298;SDS011;10308;42.688;23.256;2023-10-08T01:43:19;6.63;;;5.03;;
20298;SDS011;10308;42.688;23.256;2023-10-08T01:45:46;5.65;;;4.80;;
20298;SDS011;10308;42.688;23.256;2023-10-08T01:48:17;6.15;;;4.95;;
20298;SDS011;10308;42.688;23.256;2023-10-08T01:50:53;7.57;;;5.40;;
20298;SDS011;10308;42.688;23.256;2023-10-08T01:53:21;7.88;;;5.68;;
20298;SDS011;10308;42.688;23.256;2023-10-08T01:55:48;6.38;;;4.88;;
20298;SDS011;10308;42.688;23.256;2023-10-08T01:58:22;7.25;;;4.80;;
20298;SDS011;10308;42.688;23.256;2023-10-08T02:00:51;5.97;;;4.95;;
20298;SDS011;10308;42.688;23.256;2023-10-08T02:03:23;8.20;;;5.38;;
20298;SDS011;10308;42.688;23.256;2023-10-08T02:05:50;5.72;;;4.60;;
20298;SDS011;10308;42.688;23.256;2023-10-08T02:08:20;5.78;;;5.22;;
20298;SDS011;10308;42.688;23.256;2023-10-08T02:10:47;5.80;;;5.05;;
20298;SDS011;10308;42.688;23.256;2023-10-08T02:13:18;6.43;;;5.45;;
20298;SDS011;10308;42.688;23.256;2023-10-08T02:15:48;7.63;;;5.43;;
20298;SDS011;10308;42.688;23.256;2023-10-08T02:18:16;5.78;;;5.00;;
20298;SDS011;10308;42.688;23.256;2023-10-08T02:20:44;6.05;;;4.70;;
20298;SDS011;10308;42.688;23.256;2023-10-08T02:23:11;5.68;;;4.60;;
20298;SDS011;10308;42.688;23.256;2023-10-08T02:25:38;8.30;;;4.88;;
20298;SDS011;10308;42.688;23.256;2023-10-08T02:28:06;6.30;;;5.00;;
20298;SDS011;10308;42.688;23.256;2023-10-08T02:30:35;5.85;;;4.55;;
20298;SDS011;10308;42.688;23.256;2023-10-08T02:33:06;5.43;;;4.82;;
20298;SDS011;10308;42.688;23.256;2023-10-08T02:35:39;6.40;;;4.80;;
20298;SDS011;10308;42.688;23.256;2023-10-08T02:38:07;5.82;;;4.80;;
20298;SDS011;10308;42.688;23.256;2023-10-08T02:40:36;6.75;;;4.70;;
20298;SDS011;10308;42.688;23.256;2023-10-08T02:43:10;6.78;;;5.35;;
20298;SDS011;10308;42.688;23.256;2023-10-08T02:45:39;7.72;;;5.78;;
20298;SDS011;10308;42.688;23.256;2023-10-08T02:48:08;6.53;;;4.93;;
20298;SDS011;10308;42.688;23.256;2023-10-08T02:50:37;6.60;;;5.10;;
20298;SDS011;10308;42.688;23.256;2023-10-08T02:53:05;6.75;;;4.72;;
20298;SDS011;10308;42.688;23.256;2023-10-08T02:55:36;5.40;;;4.90;;
20298;SDS011;10308;42.688;23.256;2023-10-08T02:58:07;5.72;;;4.57;;
20298;SDS011;10308;42.688;23.256;2023-10-08T03:00:39;5.68;;;4.72;;
20298;SDS011;10308;42.688;23.256;2023-10-08T03:03:09;6.45;;;5.28;;
20298;SDS011;10308;42.688;23.256;2023-10-08T03:05:41;7.13;;;5.05;;
20298;SDS011;10308;42.688;23.256;2023-10-08T03:08:12;5.90;;;4.80;;
20298;SDS011;10308;42.688;23.256;2023-10-08T03:10:44;6.70;;;4.90;;
20298;SDS011;10308;42.688;23.256;2023-10-08T03:13:13;5.03;;;4.43;;
20298;SDS011;10308;42.688;23.256;2023-10-08T03:15:41;6.43;;;5.03;;
20298;SDS011;10308;42.688;23.256;2023-10-08T03:18:34;7.45;;;4.80;;
20298;SDS011;10308;42.688;23.256;2023-10-08T03:21:02;7.40;;;5.05;;
20298;SDS011;10308;42.688;23.256;2023-10-08T03:23:30;9.45;;;5.50;;
20298;SDS011;10308;42.688;23.256;2023-10-08T03:26:00;7.40;;;4.90;;
20298;SDS011;10308;42.688;23.256;2023-10-08T03:28:35;6.35;;;5.05;;
20298;SDS011;10308;42.688;23.256;2023-10-08T03:31:02;5.78;;;5.03;;
20298;SDS011;10308;42.688;23.256;2023-10-08T03:33:30;7.35;;;5.18;;
20298;SDS011;10308;42.688;23.256;2023-10-08T03:36:01;8.98;;;5.65;;
20298;SDS011;10308;42.688;23.256;2023-10-08T03:38:36;9.25;;;5.75;;
20298;SDS011;10308;42.688;23.256;2023-10-08T03:41:17;8.95;;;6.18;;
20298;SDS011;10308;42.688;23.256;2023-10-08T03:43:46;7.03;;;5.63;;
20298;SDS011;10308;42.688;23.256;2023-10-08T03:46:28;6.40;;;5.47;;
20298;SDS011;10308;42.688;23.256;2023-10-08T03:48:55;7.82;;;5.80;;
20298;SDS011;10308;42.688;23.256;2023-10-08T03:51:24;8.50;;;5.65;;
20298;SDS011;10308;42.688;23.256;2023-10-08T03:53:53;9.52;;;5.10;;
20298;SDS011;10308;42.688;23.256;2023-10-08T03:56:40;6.32;;;5.00;;
20298;SDS011;10308;42.688;23.256;2023-10-08T03:59:11;8.70;;;5.32;;
20298;SDS011;10308;42.688;23.256;2023-10-08T04:01:40;8.60;;;5.78;;
20298;SDS011;10308;42.688;23.256;2023-10-08T04:04:10;8.32;;;5.72;;
20298;SDS011;10308;42.688;23.256;2023-10-08T04:06:41;9.10;;;5.30;;
20298;SDS011;10308;42.688;23.256;2023-10-08T04:09:15;5.47;;;4.50;;
20298;SDS011;10308;42.688;23.256;2023-10-08T04:11:50;5.43;;;4.53;;
20298;SDS011;10308;42.688;23.256;2023-10-08T04:14:29;6.35;;;4.78;;
20298;SDS011;10308;42.688;23.256;2023-10-08T04:16:56;6.55;;;4.30;;
20298;SDS011;10308;42.688;23.256;2023-10-08T04:19:24;6.82;;;4.80;;
20298;SDS011;10308;42.688;23.256;2023-10-08T04:21:55;5.38;;;4.50;;
20298;SDS011;10308;42.688;23.256;2023-10-08T04:24:23;7.30;;;4.38;;
20298;SDS011;10308;42.688;23.256;2023-10-08T04:27:00;7.03;;;4.75;;
20298;SDS011;10308;42.688;23.256;2023-10-08T04:29:28;9.45;;;5.15;;
20298;SDS011;10308;42.688;23.256;2023-10-08T04:31:58;11.32;;;5.45;;
20298;SDS011;10308;42.688;23.256;2023-10-08T04:34:33;9.52;;;5.47;;
20298;SDS011;10308;42.688;23.256;2023-10-08T04:37:01;11.43;;;5.78;;
20298;SDS011;10308;42.688;23.256;2023-10-08T04:39:37;10.10;;;5.38;;
20298;SDS011;10308;42.688;23.256;2023-10-08T04:42:06;8.52;;;4.88;;
20298;SDS011;10308;42.688;23.256;2023-10-08T04:44:37;6.95;;;5.30;;
20298;SDS011;10308;42.688;23.256;2023-10-08T04:47:06;8.45;;;5.35;;
20298;SDS011;10308;42.688;23.256;2023-10-08T04:49:36;10.07;;;5.82;;
20298;SDS011;10308;42.688;23.256;2023-10-08T04:52:11;8.73;;;5.90;;
20298;SDS011;10308;42.688;23.256;2023-10-08T04:54:40;8.85;;;5.70;;
20298;SDS011;10308;42.688;23.256;2023-10-08T04:57:16;6.25;;;5.28;;
20298;SDS011;10308;42.688;23.256;2023-10-08T04:59:49;9.27;;;5.82;;
20298;SDS011;10308;42.688;23.256;2023-10-08T05:02:16;11.52;;;6.00;;
20298;SDS011;10308;42.688;23.256;2023-10-08T05:04:54;8.95;;;5.93;;
20298;SDS011;10308;42.688;23.256;2023-10-08T05:07:48;9.73;;;6.45;;
20298;SDS011;10308;42.688;23.256;2023-10-08T05:10:28;8.50;;;5.60;;
20298;SDS011;10308;42.688;23.256;2023-10-08T05:13:10;8.48;;;6.43;;
20298;SDS011;10308;42.688;23.256;2023-10-08T05:15:41;10.20;;;5.63;;
20298;SDS011;10308;42.688;23.256;2023-10-08T05:18:27;8.13;;;6.18;;
20298;SDS011;10308;42.688;23.256;2023-10-08T05:21:13;7.93;;;6.43;;
20298;SDS011;10308;42.688;23.256;2023-10-08T05:23:52;11.52;;;6.97;;
20298;SDS011;10308;42.688;23.256;2023-10-08T05:26:33;9.20;;;6.35;;
20298;SDS011;10308;42.688;23.256;2023-10-08T05:29:07;9.57;;;6.43;;
20298;SDS011;10308;42.688;23.256;2023-10-08T05:31:48;10.80;;;6.60;;
20298;SDS011;10308;42.688;23.256;2023-10-08T05:34:35;7.70;;;6.90;;
20298;SDS011;10308;42.688;23.256;2023-10-08T05:37:08;10.13;;;6.50;;
20298;SDS011;10308;42.688;23.256;2023-10-08T05:39:59;9.80;;;6.28;;
20298;SDS011;10308;42.688;23.256;2023-10-08T05:42:46;8.73;;;6.70;;
20298;SDS011;10308;42.688;23.256;2023-10-08T05:45:15;9.80;;;7.03;;
20298;SDS011;10308;42.688;23.256;2023-10-08T05:47:55;11.20;;;6.80;;
20298;SDS011;10308;42.688;23.256;2023-10-08T05:50:39;8.77;;;6.68;;
20298;SDS011;10308;42.688;23.256;2023-10-08T05:53:08;9.85;;;6.57;;
20298;SDS011;10308;42.688;23.256;2023-10-08T05:55:46;10.63;;;6.85;;
20298;SDS011;10308;42.688;23.256;2023-10-08T05:58:27;9.02;;;6.93;;
20298;SDS011;10308;42.688;23.256;2023-10-08T06:01:10;11.27;;;7.28;;
20298;SDS011;10308;42.688;23.256;2023-10-08T06:03:51;9.68;;;7.13;;
20298;SDS011;10308;42.688;23.256;2023-10-08T06:06:25;8.55;;;6.78;;
20298;SDS011;10308;42.688;23.256;2023-10-08T06:09:05;11.18;;;7.20;;
20298;SDS011;10308;42.688;23.256;2023-10-08T06:11:50;8.27;;;6.78;;
20298;SDS011;10308;42.688;23.256;2023-10-08T06:14:34;10.30;;;7.13;;
20298;SDS011;10308;42.688;23.256;2023-10-08T06:17:23;9.27;;;6.65;;
20298;SDS011;10308;42.688;23.256;2023-10-08T06:20:00;9.05;;;6.80;;
20298;SDS011;10308;42.688;23.256;2023-10-08T06:22:35;11.57;;;6.70;;
20298;SDS011;10308;42.688;23.256;2023-10-08T06:25:03;11.73;;;7.43;;
20298;SDS011;10308;42.688;23.256;2023-10-08T06:27:45;10.27;;;7.50;;
20298;SDS011;10308;42.688;23.256;2023-10-08T06:30:12;8.63;;;6.57;;
20298;SDS011;10308;42.688;23.256;2023-10-08T06:32:43;9.43;;;6.50;;
20298;SDS011;10308;42.688;23.256;2023-10-08T06:35:11;10.60;;;6.38;;
20298;SDS011;10308;42.688;23.256;2023-10-08T06:37:43;10.38;;;7.57;;
20298;SDS011;10308;42.688;23.256;2023-10-08T06:40:12;9.93;;;6.88;;
20298;SDS011;10308;42.688;23.256;2023-10-08T06:43:07;10.30;;;6.22;;
20298;SDS011;10308;42.688;23.256;2023-10-08T06:45:49;11.40;;;7.30;;
20298;SDS011;10308;42.688;23.256;2023-10-08T06:48:19;14.23;;;8.85;;
20298;SDS011;10308;42.688;23.256;2023-10-08T06:50:51;11.77;;;9.73;;
20298;SDS011;10308;42.688;23.256;2023-10-08T06:53:22;13.70;;;9.57;;
20298;SDS011;10308;42.688;23.256;2023-10-08T06:55:50;13.30;;;9.75;;
20298;SDS011;10308;42.688;23.256;2023-10-08T06:58:23;12.88;;;9.70;;
20298;SDS011;10308;42.688;23.256;2023-10-08T07:00:52;12.05;;;8.20;;
20298;SDS011;10308;42.688;23.256;2023-10-08T07:03:20;12.82;;;7.88;;
20298;SDS011;10308;42.688;23.256;2023-10-08T07:05:48;8.25;;;5.90;;
20298;SDS011;10308;42.688;23.256;2023-10-08T07:08:29;7.80;;;4.25;;
20298;SDS011;10308;42.688;23.256;2023-10-08T07:10:58;6.07;;;3.75;;
20298;SDS011;10308;42.688;23.256;2023-10-08T07:13:31;4.50;;;3.75;;
20298;SDS011;10308;42.688;23.256;2023-10-08T07:16:01;5.32;;;3.35;;
20298;SDS011;10308;42.688;23.256;2023-10-08T07:18:29;4.80;;;3.67;;
20298;SDS011;10308;42.688;23.256;2023-10-08T07:20:59;4.85;;;3.35;;
20298;SDS011;10308;42.688;23.256;2023-10-08T07:23:28;4.78;;;3.35;;
20298;SDS011;10308;42.688;23.256;2023-10-08T07:26:00;4.18;;;3.72;;
20298;SDS011;10308;42.688;23.256;2023-10-08T07:28:38;3.50;;;2.75;;
20298;SDS011;10308;42.688;23.256;2023-10-08T07:31:12;5.10;;;3.40;;
20298;SDS011;10308;42.688;23.256;2023-10-08T07:33:40;4.22;;;3.15;;
20298;SDS011;10308;42.688;23.256;2023-10-08T07:36:09;4.68;;;3.72;;
20298;SDS011;10308;42.688;23.256;2023-10-08T07:38:39;3.50;;;2.95;;
20298;SDS011;10308;42.688;23.256;2023-10-08T07:41:07;5.25;;;3.00;;
20298;SDS011;10308;42.688;23.256;2023-10-08T07:43:34;3.70;;;3.00;;
20298;SDS011;10308;42.688;23.256;2023-10-08T07:46:05;4.80;;;3.70;;
20298;SDS011;10308;42.688;23.256;2023-10-08T07:48:31;4.88;;;3.28;;
20298;SDS011;10308;42.688;23.256;2023-10-08T07:50:58;4.30;;;3.05;;
20298;SDS011;10308;42.688;23.256;2023-10-08T07:53:25;5.72;;;3.50;;
20298;SDS011;10308;42.688;23.256;2023-10-08T07:56:03;3.72;;;3.22;;
20298;SDS011;10308;42.688;23.256;2023-10-08T07:58:32;6.65;;;4.00;;
20298;SDS011;10308;42.688;23.256;2023-10-08T08:01:02;4.68;;;3.03;;
20298;SDS011;10308;42.688;23.256;2023-10-08T08:03:33;4.72;;;3.28;;
20298;SDS011;10308;42.688;23.256;2023-10-08T08:06:02;4.07;;;3.13;;
20298;SDS011;10308;42.688;23.256;2023-10-08T08:08:32;4.60;;;3.20;;
20298;SDS011;10308;42.688;23.256;2023-10-08T08:11:01;6.45;;;3.33;;
20298;SDS011;10308;42.688;23.256;2023-10-08T08:13:31;3.75;;;3.03;;
20298;SDS011;10308;42.688;23.256;2023-10-08T08:15:59;4.05;;;3.30;;
20298;SDS011;10308;42.688;23.256;2023-10-08T08:18:37;5.53;;;3.25;;
20298;SDS011;10308;42.688;23.256;2023-10-08T08:21:08;4.32;;;3.50;;
20298;SDS011;10308;42.688;23.256;2023-10-08T08:23:39;5.25;;;3.40;;
20298;SDS011;10308;42.688;23.256;2023-10-08T08:26:13;4.68;;;3.38;;
20298;SDS011;10308;42.688;23.256;2023-10-08T08:28:52;7.88;;;5.28;;
20298;SDS011;10308;42.688;23.256;2023-10-08T08:31:20;4.45;;;3.30;;
20298;SDS011;10308;42.688;23.256;2023-10-08T08:33:51;3.90;;;3.25;;
20298;SDS011;10308;42.688;23.256;2023-10-08T08:36:26;3.83;;;3.20;;
20298;SDS011;10308;42.688;23.256;2023-10-08T08:38:54;4.55;;;3.15;;
20298;SDS011;10308;42.688;23.256;2023-10-08T08:41:21;5.65;;;3.13;;
20298;SDS011;10308;42.688;23.256;2023-10-08T08:43:48;5.68;;;3.15;;
20298;SDS011;10308;42.688;23.256;2023-10-08T08:46:26;4.50;;;3.40;;
20298;SDS011;10308;42.688;23.256;2023-10-08T08:48:57;4.78;;;3.28;;
20298;SDS011;10308;42.688;23.256;2023-10-08T08:51:29;5.57;;;3.58;;
20298;SDS011;10308;42.688;23.256;2023-10-08T08:53:57;5.32;;;4.00;;
20298;SDS011;10308;42.688;23.256;2023-10-08T08:56:32;5.80;;;3.45;;
20298;SDS011;10308;42.688;23.256;2023-10-08T08:59:00;5.20;;;3.40;;
20298;SDS011;10308;42.688;23.256;2023-10-08T09:01:27;5.18;;;3.45;;
20298;SDS011;10308;42.688;23.256;2023-10-08T09:04:00;5.05;;;3.83;;
20298;SDS011;10308;42.688;23.256;2023-10-08T09:06:30;4.53;;;3.50;;
20298;SDS011;10308;42.688;23.256;2023-10-08T09:09:00;5.97;;;4.60;;
20298;SDS011;10308;42.688;23.256;2023-10-08T09:11:47;6.03;;;3.50;;
20298;SDS011;10308;42.688;23.256;2023-10-08T09:14:17;5.45;;;3.90;;
20298;SDS011;10308;42.688;23.256;2023-10-08T09:16:46;4.78;;;3.63;;
20298;SDS011;10308;42.688;23.256;2023-10-08T09:19:14;3.45;;;3.13;;
20298;SDS011;10308;42.688;23.256;2023-10-08T09:21:43;8.43;;;3.72;;
20298;SDS011;10308;42.688;23.256;2023-10-08T09:24:10;4.95;;;3.67;;
20298;SDS011;10308;42.688;23.256;2023-10-08T09:26:37;4.00;;;3.40;;
20298;SDS011;10308;42.688;23.256;2023-10-08T09:29:05;5.28;;;3.50;;
20298;SDS011;10308;42.688;23.256;2023-10-08T09:31:33;5.30;;;3.80;;
20298;SDS011;10308;42.688;23.256;2023-10-08T09:34:01;6.20;;;3.40;;
20298;SDS011;10308;42.688;23.256;2023-10-08T09:36:31;4.80;;;3.53;;
20298;SDS011;10308;42.688;23.256;2023-10-08T09:38:59;3.80;;;3.33;;
20298;SDS011;10308;42.688;23.256;2023-10-08T09:41:29;6.80;;;4.00;;
20298;SDS011;10308;42.688;23.256;2023-10-08T09:43:58;5.53;;;3.80;;
20298;SDS011;10308;42.688;23.256;2023-10-08T09:46:27;6.18;;;3.70;;
20298;SDS011;10308;42.688;23.256;2023-10-08T09:48:57;4.03;;;3.10;;
20298;SDS011;10308;42.688;23.256;2023-10-08T09:51:27;5.55;;;3.85;;
20298;SDS011;10308;42.688;23.256;2023-10-08T09:54:00;7.35;;;4.72;;
20298;SDS011;10308;42.688;23.256;2023-10-08T09:56:31;5.50;;;3.83;;
20298;SDS011;10308;42.688;23.256;2023-10-08T09:58:59;4.68;;;3.40;;
20298;SDS011;10308;42.688;23.256;2023-10-08T10:01:27;5.60;;;3.67;;
20298;SDS011;10308;42.688;23.256;2023-10-08T10:03:57;6.20;;;3.75;;
20298;SDS011;10308;42.688;23.256;2023-10-08T10:06:26;5.72;;;3.80;;
20298;SDS011;10308;42.688;23.256;2023-10-08T10:08:53;4.45;;;3.65;;
20298;SDS011;10308;42.688;23.256;2023-10-08T10:11:27;5.25;;;3.83;;
20298;SDS011;10308;42.688;23.256;2023-10-08T10:13:57;4.38;;;3.50;;
20298;SDS011;10308;42.688;23.256;2023-10-08T10:16:26;5.72;;;3.25;;
20298;SDS011;10308;42.688;23.256;2023-10-08T10:18:54;4.13;;;3.08;;
20298;SDS011;10308;42.688;23.256;2023-10-08T10:21:26;3.90;;;3.28;;
20298;SDS011;10308;42.688;23.256;2023-10-08T10:23:56;5.28;;;3.80;;
20298;SDS011;10308;42.688;23.256;2023-10-08T10:26:28;5.97;;;3.30;;
20298;SDS011;10308;42.688;23.256;2023-10-08T10:31:45;3.55;;;3.25;;
20298;SDS011;10308;42.688;23.256;2023-10-08T10:34:13;4.78;;;2.97;;
20298;SDS011;10308;42.688;23.256;2023-10-08T10:36:42;5.03;;;3.00;;
20298;SDS011;10308;42.688;23.256;2023-10-08T10:39:13;5.30;;;3.10;;
20298;SDS011;10308;42.688;23.256;2023-10-08T10:41:44;4.50;;;3.10;;
20298;SDS011;10308;42.688;23.256;2023-10-08T10:44:11;6.68;;;3.00;;
20298;SDS011;10308;42.688;23.256;2023-10-08T10:46:40;4.68;;;3.42;;
20298;SDS011;10308;42.688;23.256;2023-10-08T10:49:08;4.78;;;3.28;;
20298;SDS011;10308;42.688;23.256;2023-10-08T10:51:48;4.07;;;3.33;;
20298;SDS011;10308;42.688;23.256;2023-10-08T10:54:22;4.32;;;3.20;;
20298;SDS011;10308;42.688;23.256;2023-10-08T10:56:53;4.13;;;2.80;;
20298;SDS011;10308;42.688;23.256;2023-10-08T10:59:28;7.38;;;2.95;;
20298;SDS011;10308;42.688;23.256;2023-10-08T11:02:02;4.03;;;2.58;;
20298;SDS011;10308;42.688;23.256;2023-10-08T11:04:33;4.47;;;2.90;;
20298;SDS011;10308;42.688;23.256;2023-10-08T11:07:12;4.57;;;3.40;;
20298;SDS011;10308;42.688;23.256;2023-10-08T11:09:41;4.28;;;3.20;;
20298;SDS011;10308;42.688;23.256;2023-10-08T11:12:12;4.53;;;2.72;;
20298;SDS011;10308;42.688;23.256;2023-10-08T11:14:48;3.85;;;3.10;;
20298;SDS011;10308;42.688;23.256;2023-10-08T11:17:17;4.32;;;2.90;;
20298;SDS011;10308;42.688;23.256;2023-10-08T11:19:50;3.92;;;2.85;;
20298;SDS011;10308;42.688;23.256;2023-10-08T11:22:17;4.65;;;3.08;;
20298;SDS011;10308;42.688;23.256;2023-10-08T11:24:48;4.97;;;3.20;;
20298;SDS011;10308;42.688;23.256;2023-10-08T11:27:20;5.40;;;3.03;;
20298;SDS011;10308;42.688;23.256;2023-10-08T11:29:55;5.18;;;2.80;;
20298;SDS011;10308;42.688;23.256;2023-10-08T11:32:23;5.53;;;2.95;;
20298;SDS011;10308;42.688;23.256;2023-10-08T11:34:54;6.05;;;2.95;;
20298;SDS011;10308;42.688;23.256;2023-10-08T11:37:27;5.95;;;2.67;;
20298;SDS011;10308;42.688;23.256;2023-10-08T11:39:54;4.65;;;2.75;;
20298;SDS011;10308;42.688;23.256;2023-10-08T11:42:26;4.82;;;2.70;;
20298;SDS011;10308;42.688;23.256;2023-10-08T11:45:09;5.50;;;3.22;;
20298;SDS011;10308;42.688;23.256;2023-10-08T11:47:51;6.70;;;2.90;;
20298;SDS011;10308;42.688;23.256;2023-10-08T11:50:25;7.60;;;2.85;;
20298;SDS011;10308;42.688;23.256;2023-10-08T11:52:58;5.70;;;3.10;;
20298;SDS011;10308;42.688;23.256;2023-10-08T11:55:30;6.15;;;3.05;;
20298;SDS011;10308;42.688;23.256;2023-10-08T11:58:02;4.82;;;3.08;;
20298;SDS011;10308;42.688;23.256;2023-10-08T12:00:36;7.38;;;2.95;;
20298;SDS011;10308;42.688;23.256;2023-10-08T12:03:09;4.85;;;3.35;;
20298;SDS011;10308;42.688;23.256;2023-10-08T12:05:37;6.68;;;3.42;;
20298;SDS011;10308;42.688;23.256;2023-10-08T12:08:12;6.72;;;3.22;;
20298;SDS011;10308;42.688;23.256;2023-10-08T12:10:41;4.97;;;3.42;;
20298;SDS011;10308;42.688;23.256;2023-10-08T12:13:12;6.85;;;3.25;;
20298;SDS011;10308;42.688;23.256;2023-10-08T12:15:39;4.75;;;3.30;;
20298;SDS011;10308;42.688;23.256;2023-10-08T12:18:07;5.22;;;3.03;;
20298;SDS011;10308;42.688;23.256;2023-10-08T12:20:41;8.70;;;3.35;;
20298;SDS011;10308;42.688;23.256;2023-10-08T12:23:09;10.13;;;3.55;;
20298;SDS011;10308;42.688;23.256;2023-10-08T12:25:38;11.27;;;3.47;;
20298;SDS011;10308;42.688;23.256;2023-10-08T12:28:12;8.82;;;3.40;;
20298;SDS011;10308;42.688;23.256;2023-10-08T12:30:40;8.57;;;2.97;;
20298;SDS011;10308;42.688;23.256;2023-10-08T12:33:08;6.35;;;2.95;;
20298;SDS011;10308;42.688;23.256;2023-10-08T12:35:38;9.15;;;3.80;;
20298;SDS011;10308;42.688;23.256;2023-10-08T12:38:06;5.95;;;3.08;;
20298;SDS011;10308;42.688;23.256;2023-10-08T12:40:34;5.07;;;3.17;;
20298;SDS011;10308;42.688;23.256;2023-10-08T12:43:15;6.60;;;3.22;;
20298;SDS011;10308;42.688;23.256;2023-10-08T12:45:44;7.18;;;3.15;;
20298;SDS011;10308;42.688;23.256;2023-10-08T12:48:17;7.50;;;2.80;;
20298;SDS011;10308;42.688;23.256;2023-10-08T12:50:45;9.02;;;3.53;;
20298;SDS011;10308;42.688;23.256;2023-10-08T12:53:19;11.77;;;4.30;;
20298;SDS011;10308;42.688;23.256;2023-10-08T12:55:50;11.98;;;3.40;;
20298;SDS011;10308;42.688;23.256;2023-10-08T12:58:20;8.65;;;3.03;;
20298;SDS011;10308;42.688;23.256;2023-10-08T13:00:52;11.45;;;3.38;;
20298;SDS011;10308;42.688;23.256;2023-10-08T13:03:24;9.27;;;3.20;;
20298;SDS011;10308;42.688;23.256;2023-10-08T13:05:56;7.82;;;2.80;;
20298;SDS011;10308;42.688;23.256;2023-10-08T13:08:30;8.73;;;3.50;;
20298;SDS011;10308;42.688;23.256;2023-10-08T13:10:57;7.30;;;3.13;;
20298;SDS011;10308;42.688;23.256;2023-10-08T13:13:28;7.70;;;2.90;;
20298;SDS011;10308;42.688;23.256;2023-10-08T13:15:55;6.40;;;2.95;;
20298;SDS011;10308;42.688;23.256;2023-10-08T13:18:25;10.07;;;3.25;;
20298;SDS011;10308;42.688;23.256;2023-10-08T13:20:52;4.55;;;2.80;;
20298;SDS011;10308;42.688;23.256;2023-10-08T13:23:19;5.90;;;2.50;;
20298;SDS011;10308;42.688;23.256;2023-10-08T13:25:48;8.77;;;2.80;;
20298;SDS011;10308;42.688;23.256;2023-10-08T13:28:19;5.85;;;2.58;;
20298;SDS011;10308;42.688;23.256;2023-10-08T13:30:50;6.97;;;3.10;;
20298;SDS011;10308;42.688;23.256;2023-10-08T13:33:19;7.05;;;2.95;;
20298;SDS011;10308;42.688;23.256;2023-10-08T13:35:47;7.88;;;3.33;;
20298;SDS011;10308;42.688;23.256;2023-10-08T13:38:16;5.75;;;3.60;;
20298;SDS011;10308;42.688;23.256;2023-10-08T13:40:45;7.65;;;3.90;;
20298;SDS011;10308;42.688;23.256;2023-10-08T13:43:28;7.57;;;2.95;;
20298;SDS011;10308;42.688;23.256;2023-10-08T13:46:01;3.72;;;2.80;;
20298;SDS011;10308;42.688;23.256;2023-10-08T13:48:30;6.28;;;2.90;;
20298;SDS011;10308;42.688;23.256;2023-10-08T13:50:59;6.50;;;3.22;;
20298;SDS011;10308;42.688;23.256;2023-10-08T13:53:29;7.82;;;3.25;;
20298;SDS011;10308;42.688;23.256;2023-10-08T13:55:57;5.35;;;2.75;;
20298;SDS011;10308;42.688;23.256;2023-10-08T13:58:27;5.05;;;3.00;;
20298;SDS011;10308;42.688;23.256;2023-10-08T14:00:55;5.93;;;2.92;;
20298;SDS011;10308;42.688;23.256;2023-10-08T14:03:26;5.90;;;2.92;;
20298;SDS011;10308;42.688;23.256;2023-10-08T14:05:56;6.00;;;3.50;;
20298;SDS011;10308;42.688;23.256;2023-10-08T14:08:27;5.10;;;2.63;;
20298;SDS011;10308;42.688;23.256;2023-10-08T14:10:55;5.55;;;3.25;;
20298;SDS011;10308;42.688;23.256;2023-10-08T14:13:28;5.93;;;3.15;;
20298;SDS011;10308;42.688;23.256;2023-10-08T14:15:56;7.60;;;3.45;;
20298;SDS011;10308;42.688;23.256;2023-10-08T14:18:23;7.72;;;3.30;;
20298;SDS011;10308;42.688;23.256;2023-10-08T14:20:55;9.23;;;3.55;;
20298;SDS011;10308;42.688;23.256;2023-10-08T14:23:22;8.75;;;4.03;;
20298;SDS011;10308;42.688;23.256;2023-10-08T14:25:51;11.68;;;3.60;;
20298;SDS011;10308;42.688;23.256;2023-10-08T14:28:22;9.63;;;3.75;;
20298;SDS011;10308;42.688;23.256;2023-10-08T14:31:06;10.57;;;3.17;;
20298;SDS011;10308;42.688;23.256;2023-10-08T14:33:34;9.43;;;3.00;;
20298;SDS011;10308;42.688;23.256;2023-10-08T14:36:09;7.55;;;3.15;;
20298;SDS011;10308;42.688;23.256;2023-10-08T14:38:53;9.93;;;3.65;;
20298;SDS011;10308;42.688;23.256;2023-10-08T14:41:38;6.30;;;3.60;;
20298;SDS011;10308;42.688;23.256;2023-10-08T14:44:23;10.35;;;3.00;;
20298;SDS011;10308;42.688;23.256;2023-10-08T14:46:51;6.22;;;3.08;;
20298;SDS011;10308;42.688;23.256;2023-10-08T14:49:19;9.95;;;3.58;;
20298;SDS011;10308;42.688;23.256;2023-10-08T14:51:49;8.27;;;3.53;;
20298;SDS011;10308;42.688;23.256;2023-10-08T14:54:18;8.43;;;3.55;;
20298;SDS011;10308;42.688;23.256;2023-10-08T14:56:46;9.55;;;3.20;;
20298;SDS011;10308;42.688;23.256;2023-10-08T14:59:15;9.05;;;3.15;;
20298;SDS011;10308;42.688;23.256;2023-10-08T15:01:43;7.93;;;3.03;;
20298;SDS011;10308;42.688;23.256;2023-10-08T15:04:12;9.05;;;2.92;;